Terminal Aerodrome Forecast
Issued by NWS Omaha/Valley, NE

Home | Current Version | Previous Version | Graphics & Text | Print | Product List | Glossary On
Versions: 1 2 3 4 5 6 7 8 9 10 11 12 13
000
FTUS43 KOAX 260844 AAA
TAFOFK
TAF AMD
KOFK 260844Z 2609/2706 25010KT P6SM BKN120
      TEMPO 2609/2611 -TSRA BKN050CB
     FM261200 18005KT P6SM VCSH BKN070
     FM261500 35006KT P6SM SCT250
     FM261800 03007KT P6SM FEW250=

USA.gov is the U.S. government's official web portal to all federal, state and local government web resources and services.